Time;durP1;ratioP1;P1;durP2;ratioP2;P2;SDS_P1;SDS_P2;PMS_P1;PMS_P2;Temp;Humidity;BMP_temperature;BMP_pressure;BME280_temperature;BME280_humidity;BME280_pressure;Samples;Min_cycle;Max_cycle;Signal;HPM_P1;HPM_P2
2024/02/12 00:00:18;;;;;;;1.60;1.50;;;5.70;99.90;;;;;;5010786;28;20450;-58
2024/02/12 00:02:45;;;;;;;1.63;1.50;;;5.70;99.90;;;;;;5004422;28;20187;-58
2024/02/12 00:05:11;;;;;;;2.20;1.77;;;5.70;99.90;;;;;;5008510;28;21106;-59
2024/02/12 00:07:40;;;;;;;3.13;1.63;;;5.70;99.90;;;;;;5009811;28;20423;-59
2024/02/12 00:10:10;;;;;;;1.77;1.50;;;5.70;99.90;;;;;;5006803;28;20222;-59
2024/02/12 00:12:39;;;;;;;1.83;1.67;;;5.70;99.90;;;;;;5009823;28;21007;-58
2024/02/12 00:15:11;;;;;;;2.23;1.70;;;5.80;99.90;;;;;;5009753;28;20466;-58
2024/02/12 00:17:41;;;;;;;4.03;1.90;;;5.80;99.90;;;;;;5007420;28;20432;-58
2024/02/12 00:20:10;;;;;;;2.43;1.80;;;5.80;99.90;;;;;;5006113;28;20435;-58
2024/02/12 00:22:39;;;;;;;3.33;1.50;;;5.80;99.90;;;;;;5003367;28;20782;-58
2024/02/12 00:25:11;;;;;;;2.73;1.90;;;5.80;99.90;;;;;;5008641;28;20932;-59
2024/02/12 00:27:39;;;;;;;1.37;1.27;;;5.80;99.90;;;;;;5010381;28;20407;-59
2024/02/12 00:30:08;;;;;;;2.43;1.70;;;5.80;99.90;;;;;;5006251;28;20463;-58
2024/02/12 00:32:36;;;;;;;2.60;1.53;;;5.80;99.90;;;;;;5008736;28;20431;-57
2024/02/12 00:35:04;;;;;;;1.50;1.40;;;5.80;99.90;;;;;;5007988;28;20495;-59
2024/02/12 00:37:31;;;;;;;3.50;2.20;;;5.80;99.90;;;;;;5010020;28;20892;-58
2024/02/12 00:39:58;;;;;;;1.43;1.33;;;5.80;99.90;;;;;;5009479;28;20942;-58
2024/02/12 00:42:24;;;;;;;1.20;1.20;;;5.80;99.90;;;;;;5008751;28;20499;-58
2024/02/12 00:44:50;;;;;;;2.80;1.50;;;5.80;99.90;;;;;;5007549;28;20432;-59
2024/02/12 00:47:16;;;;;;;4.20;1.57;;;5.80;99.90;;;;;;5007148;28;20450;-58
2024/02/12 00:49:43;;;;;;;1.23;1.03;;;5.80;99.90;;;;;;5008871;28;20259;-61
2024/02/12 00:52:12;;;;;;;2.93;1.20;;;5.80;99.90;;;;;;5009796;28;20478;-59
2024/02/12 00:54:41;;;;;;;1.47;1.20;;;5.80;99.90;;;;;;5009395;28;20589;-58
2024/02/12 00:57:07;;;;;;;1.20;1.10;;;5.80;99.90;;;;;;5007929;28;20786;-58
2024/02/12 00:59:38;;;;;;;1.27;1.17;;;5.80;99.90;;;;;;5008520;28;20432;-58
2024/02/12 01:02:05;;;;;;;1.30;1.20;;;5.70;99.90;;;;;;5007097;28;20404;-57
2024/02/12 01:04:31;;;;;;;1.30;1.20;;;5.80;99.90;;;;;;5006449;28;20442;-57
2024/02/12 01:06:59;;;;;;;1.70;1.20;;;5.70;99.90;;;;;;5009546;28;20419;-57
2024/02/12 01:09:26;;;;;;;1.50;1.40;;;5.80;99.90;;;;;;5008871;28;20168;-58
2024/02/12 01:11:52;;;;;;;1.17;1.10;;;5.80;99.90;;;;;;5006404;28;20427;-58
2024/02/12 01:14:19;;;;;;;1.50;1.20;;;5.80;99.90;;;;;;5006217;28;20589;-56
2024/02/12 01:16:45;;;;;;;2.03;1.30;;;5.80;99.90;;;;;;5011684;28;20499;-58
2024/02/12 01:19:11;;;;;;;1.17;1.07;;;5.80;99.90;;;;;;5009024;28;20519;-59
2024/02/12 01:21:36;;;;;;;1.23;1.10;;;5.80;99.90;;;;;;5008248;28;20459;-58
2024/02/12 01:24:02;;;;;;;2.67;1.50;;;5.70;99.90;;;;;;5005675;28;20187;-58
2024/02/12 01:26:28;;;;;;;1.43;1.30;;;5.80;99.90;;;;;;5006905;28;20172;-58
2024/02/12 01:28:55;;;;;;;1.37;1.27;;;5.70;99.90;;;;;;5012140;28;20255;-57
2024/02/12 01:31:21;;;;;;;1.67;1.30;;;5.70;99.90;;;;;;5011585;28;20220;-59
2024/02/12 01:33:47;;;;;;;2.50;1.33;;;5.70;99.90;;;;;;5007121;28;20558;-56
2024/02/12 01:36:13;;;;;;;3.50;1.20;;;5.70;99.90;;;;;;5007509;28;20700;-59
2024/02/12 01:38:40;;;;;;;1.30;1.20;;;5.70;99.90;;;;;;5009106;28;20802;-58
2024/02/12 01:41:06;;;;;;;2.30;1.00;;;5.70;99.90;;;;;;5007399;28;21039;-58
2024/02/12 01:43:34;;;;;;;1.57;0.90;;;5.70;99.90;;;;;;5010085;28;20428;-58
2024/02/12 01:46:00;;;;;;;1.10;1.00;;;5.60;99.90;;;;;;5005177;28;20558;-58
2024/02/12 01:48:32;;;;;;;1.37;1.20;;;5.60;99.90;;;;;;5008094;28;20427;-58
2024/02/12 01:51:00;;;;;;;1.50;1.10;;;5.60;99.90;;;;;;5007594;28;20435;-58
2024/02/12 01:53:26;;;;;;;0.90;0.90;;;5.60;99.90;;;;;;5008442;28;20984;-58
2024/02/12 01:55:51;;;;;;;1.13;1.10;;;5.60;99.90;;;;;;5007345;28;20487;-58
2024/02/12 01:58:18;;;;;;;1.87;1.20;;;5.60;99.90;;;;;;5005643;28;20202;-59
2024/02/12 02:00:48;;;;;;;1.10;1.10;;;5.60;99.90;;;;;;5007637;28;20275;-59
2024/02/12 02:03:17;;;;;;;1.40;1.30;;;5.60;99.90;;;;;;5008990;28;20411;-58
2024/02/12 02:05:45;;;;;;;1.40;0.97;;;5.60;99.90;;;;;;5009527;28;21021;-58
2024/02/12 02:08:11;;;;;;;1.00;0.90;;;5.60;99.90;;;;;;5007495;28;20422;-58
2024/02/12 02:10:38;;;;;;;1.00;1.00;;;5.60;99.90;;;;;;5008072;28;20447;-58
2024/02/12 02:13:06;;;;;;;1.57;0.90;;;5.50;99.90;;;;;;5004834;28;20441;-58
2024/02/12 02:15:32;;;;;;;2.30;1.37;;;5.50;99.90;;;;;;5008607;28;20461;-57
2024/02/12 02:17:58;;;;;;;0.87;0.87;;;5.50;99.90;;;;;;5004996;28;20431;-58
2024/02/12 02:20:26;;;;;;;1.53;1.00;;;5.50;99.90;;;;;;5014447;28;20447;-58
2024/02/12 02:22:52;;;;;;;0.93;0.93;;;5.50;99.90;;;;;;5007207;28;21080;-57
2024/02/12 02:25:20;;;;;;;1.93;1.20;;;5.40;99.90;;;;;;5006947;28;20846;-58
2024/02/12 02:27:46;;;;;;;1.10;1.00;;;5.40;99.90;;;;;;5004315;28;20423;-57
2024/02/12 02:30:12;;;;;;;1.43;1.00;;;5.40;99.90;;;;;;5001225;28;20522;-58
2024/02/12 02:32:40;;;;;;;1.00;1.00;;;5.40;99.90;;;;;;5007702;28;20466;-59
2024/02/12 02:35:05;;;;;;;0.90;0.90;;;5.30;99.90;;;;;;5013273;28;20465;-58
2024/02/12 02:37:32;;;;;;;1.00;1.00;;;5.40;99.90;;;;;;5007665;28;20431;-57
2024/02/12 02:39:57;;;;;;;1.47;1.00;;;5.30;99.90;;;;;;5007517;28;20204;-59
2024/02/12 02:42:25;;;;;;;1.30;1.20;;;5.30;99.90;;;;;;5003947;28;20439;-59
2024/02/12 02:44:52;;;;;;;1.30;1.20;;;5.30;99.90;;;;;;5011975;28;20251;-59
2024/02/12 02:47:18;;;;;;;0.90;0.90;;;5.30;99.90;;;;;;5011832;28;20399;-58
2024/02/12 02:49:44;;;;;;;1.20;0.90;;;5.30;99.90;;;;;;5006395;28;20458;-58
2024/02/12 02:52:11;;;;;;;0.80;0.80;;;5.20;99.90;;;;;;5009404;28;20539;-58
2024/02/12 02:54:37;;;;;;;0.90;0.90;;;5.20;99.90;;;;;;5007597;28;20223;-59
2024/02/12 02:57:03;;;;;;;1.03;0.90;;;5.20;99.90;;;;;;5008479;28;20934;-59
2024/02/12 02:59:28;;;;;;;2.20;0.90;;;5.20;99.90;;;;;;5009792;28;20973;-58
2024/02/12 03:01:54;;;;;;;1.70;1.00;;;5.20;99.90;;;;;;5008550;28;20177;-58
2024/02/12 03:04:20;;;;;;;1.90;1.20;;;5.20;99.90;;;;;;5010375;28;20180;-58
2024/02/12 03:06:46;;;;;;;1.07;0.97;;;5.20;99.90;;;;;;5011350;28;21039;-58
2024/02/12 03:09:13;;;;;;;1.93;0.90;;;5.20;99.90;;;;;;5009512;28;20186;-58
2024/02/12 03:11:39;;;;;;;1.13;1.00;;;5.20;99.90;;;;;;5010279;28;20274;-58
2024/02/12 03:14:08;;;;;;;1.07;1.00;;;5.20;99.90;;;;;;5011333;28;20434;-59
2024/02/12 03:16:37;;;;;;;1.00;0.97;;;5.20;99.90;;;;;;5009065;28;20442;-58
2024/02/12 03:19:04;;;;;;;2.03;1.03;;;5.20;99.90;;;;;;5011053;28;20423;-58
2024/02/12 03:21:31;;;;;;;1.73;1.17;;;5.20;99.90;;;;;;5010493;28;20447;-58
2024/02/12 03:23:57;;;;;;;1.13;1.03;;;5.20;99.90;;;;;;5003732;28;20906;-58
2024/02/12 03:26:22;;;;;;;1.40;1.30;;;5.20;99.90;;;;;;5010526;28;20514;-58
2024/02/12 03:28:51;;;;;;;1.27;1.17;;;5.20;99.90;;;;;;5008733;28;20185;-58
2024/02/12 03:31:17;;;;;;;1.63;1.10;;;5.20;99.90;;;;;;5013378;28;20200;-56
2024/02/12 03:33:42;;;;;;;2.93;1.37;;;5.20;99.90;;;;;;5009903;28;20451;-58
2024/02/12 03:36:09;;;;;;;0.90;0.90;;;5.20;99.90;;;;;;5016062;28;20204;-59
2024/02/12 03:38:34;;;;;;;7.83;1.33;;;5.20;99.90;;;;;;5005057;28;20173;-58
2024/02/12 03:41:00;;;;;;;1.03;0.93;;;5.20;99.90;;;;;;5009985;28;20971;-59
2024/02/12 03:43:27;;;;;;;1.47;1.37;;;5.20;99.90;;;;;;5020977;28;20172;-58
2024/02/12 03:45:56;;;;;;;1.20;1.10;;;5.10;99.90;;;;;;5009716;28;20173;-58
2024/02/12 04:02:03;;;;;;;4.20;1.30;;;5.30;99.90;;;;;;5008677;28;20442;-58
2024/02/12 04:04:29;;;;;;;2.03;1.60;;;5.20;99.90;;;;;;5010755;28;20415;-58
2024/02/12 04:06:56;;;;;;;1.53;1.43;;;5.30;99.90;;;;;;5008253;28;20180;-58
2024/02/12 04:09:22;;;;;;;1.33;1.23;;;5.20;99.90;;;;;;5010971;28;20482;-58
2024/02/12 04:11:49;;;;;;;2.30;1.37;;;5.20;99.90;;;;;;5009208;28;20423;-55
2024/02/12 04:14:15;;;;;;;3.03;1.53;;;5.10;99.90;;;;;;5009050;28;20484;-58
2024/02/12 04:16:41;;;;;;;1.90;1.70;;;5.10;99.90;;;;;;5008931;28;20551;-58
2024/02/12 04:19:07;;;;;;;3.40;1.40;;;5.00;99.90;;;;;;5010303;28;20846;-59
2024/02/12 04:21:33;;;;;;;1.70;1.30;;;5.00;99.90;;;;;;5003820;28;20479;-59
2024/02/12 04:24:00;;;;;;;2.60;1.33;;;4.90;99.90;;;;;;5000520;28;20486;-58
2024/02/12 04:26:26;;;;;;;1.50;1.40;;;4.90;99.90;;;;;;5009113;28;20709;-58
2024/02/12 04:28:53;;;;;;;1.70;1.33;;;4.90;99.90;;;;;;5012337;28;20428;-60
2024/02/12 04:31:20;;;;;;;1.50;1.40;;;4.90;99.90;;;;;;5007925;28;20189;-58
2024/02/12 04:33:46;;;;;;;2.60;1.50;;;5.00;99.90;;;;;;5010026;28;20996;-58
2024/02/12 04:36:15;;;;;;;1.93;1.50;;;5.00;99.90;;;;;;5008636;28;21080;-57
2024/02/12 04:38:41;;;;;;;1.43;1.33;;;5.00;99.90;;;;;;5009880;28;20876;-59
2024/02/12 04:41:07;;;;;;;6.07;1.90;;;5.00;99.90;;;;;;5009645;28;20459;-59
2024/02/12 04:43:35;;;;;;;4.90;1.60;;;5.10;99.90;;;;;;5006668;28;20423;-59
2024/02/12 04:46:01;;;;;;;3.63;1.40;;;5.10;99.90;;;;;;5002914;28;20263;-58
2024/02/12 04:48:27;;;;;;;4.93;1.50;;;5.10;99.90;;;;;;5006690;28;20538;-58
2024/02/12 04:50:53;;;;;;;2.40;1.60;;;5.00;99.90;;;;;;5006794;28;20336;-59
2024/02/12 04:53:18;;;;;;;1.67;1.30;;;5.00;99.90;;;;;;5008724;28;20506;-58
2024/02/12 04:55:45;;;;;;;4.40;1.27;;;5.00;99.90;;;;;;5008777;28;20659;-59
2024/02/12 04:58:11;;;;;;;2.47;1.67;;;5.00;99.90;;;;;;5002056;28;20184;-60
2024/02/12 05:00:36;;;;;;;2.33;1.93;;;5.00;99.90;;;;;;5004686;28;20478;-57
2024/02/12 05:03:06;;;;;;;2.00;1.53;;;4.90;99.90;;;;;;4999763;28;20197;-58
2024/02/12 05:05:32;;;;;;;2.33;1.30;;;4.90;99.90;;;;;;5007505;28;20564;-58
2024/02/12 05:07:57;;;;;;;5.10;1.40;;;4.80;99.90;;;;;;5006809;28;20426;-58
2024/02/12 05:10:23;;;;;;;1.67;1.40;;;4.70;99.90;;;;;;5005687;28;20192;-58
2024/02/12 05:12:50;;;;;;;1.97;1.50;;;4.70;99.90;;;;;;5008694;28;20215;-57
2024/02/12 05:15:16;;;;;;;1.70;1.60;;;4.70;99.90;;;;;;5008382;28;20691;-57
2024/02/12 05:18:06;;;;;;;2.23;1.60;;;4.60;99.90;;;;;;5008090;28;20416;-58
2024/02/12 05:23:21;;;;;;;1.43;1.33;;;4.60;99.90;;;;;;5007970;28;20857;-58
2024/02/12 05:25:47;;;;;;;1.47;1.30;;;4.60;99.90;;;;;;5007410;28;20469;-57
2024/02/12 05:28:12;;;;;;;2.63;1.40;;;4.60;99.90;;;;;;5003771;28;20419;-58
2024/02/12 05:30:38;;;;;;;2.23;1.97;;;4.60;99.90;;;;;;5010060;28;20458;-58
2024/02/12 05:33:06;;;;;;;3.13;2.83;;;4.60;99.90;;;;;;5008607;28;20635;-58
2024/02/12 05:35:32;;;;;;;4.20;3.07;;;4.70;99.90;;;;;;5007729;28;20204;-57
2024/02/12 05:37:58;;;;;;;2.77;2.57;;;4.70;99.90;;;;;;5007843;28;20470;-58
2024/02/12 05:40:24;;;;;;;2.90;2.23;;;4.70;99.90;;;;;;5006969;28;20483;-59
2024/02/12 05:42:49;;;;;;;4.47;2.30;;;4.70;99.90;;;;;;5015359;28;20168;-57
2024/02/12 05:45:15;;;;;;;2.43;1.97;;;4.80;99.90;;;;;;5005649;28;20211;-58
2024/02/12 05:47:41;;;;;;;1.70;1.47;;;4.80;99.90;;;;;;5010488;28;20187;-58
2024/02/12 05:50:07;;;;;;;2.80;1.63;;;4.80;99.90;;;;;;5007461;28;20196;-59
2024/02/12 05:52:34;;;;;;;1.60;1.50;;;4.90;99.90;;;;;;5005470;28;20263;-58
2024/02/12 05:54:59;;;;;;;2.13;1.60;;;4.90;99.90;;;;;;5007291;28;20466;-59
2024/02/12 05:57:25;;;;;;;4.47;1.87;;;4.90;99.90;;;;;;5008179;28;20412;-57
2024/02/12 05:59:51;;;;;;;5.03;2.60;;;4.90;99.90;;;;;;5006521;28;20621;-58
2024/02/12 06:02:16;;;;;;;2.53;2.33;;;4.90;99.90;;;;;;5007122;28;20340;-58
2024/02/12 06:04:42;;;;;;;1.93;1.83;;;4.90;99.90;;;;;;5008642;28;20203;-59
2024/02/12 06:07:08;;;;;;;2.03;1.80;;;4.90;99.90;;;;;;5007633;28;20196;-59
2024/02/12 06:09:36;;;;;;;1.87;1.77;;;4.90;99.90;;;;;;5007948;28;20842;-60
2024/02/12 06:12:02;;;;;;;5.53;2.07;;;4.90;99.90;;;;;;5006991;28;20180;-57
2024/02/12 06:14:28;;;;;;;5.67;1.73;;;4.90;99.90;;;;;;5005419;28;20978;-60
2024/02/12 06:16:54;;;;;;;3.90;1.80;;;4.90;99.90;;;;;;5003932;28;20173;-58
2024/02/12 06:19:20;;;;;;;1.73;1.50;;;4.90;99.90;;;;;;5002810;28;20165;-59
2024/02/12 06:21:46;;;;;;;3.00;1.83;;;4.90;99.90;;;;;;5006981;28;20469;-58
2024/02/12 06:24:11;;;;;;;2.80;1.97;;;4.90;99.90;;;;;;5006782;28;20196;-59
2024/02/12 06:26:38;;;;;;;9.80;2.53;;;4.90;99.90;;;;;;5008573;28;20233;-59
2024/02/12 06:29:04;;;;;;;2.13;1.90;;;4.90;99.90;;;;;;5007501;28;20253;-58
2024/02/12 06:31:31;;;;;;;8.53;2.07;;;4.90;99.90;;;;;;5010301;28;20447;-58
2024/02/12 06:33:57;;;;;;;2.43;1.87;;;4.90;99.90;;;;;;5006736;28;20427;-58
2024/02/12 06:36:23;;;;;;;3.20;2.00;;;4.90;99.90;;;;;;5008677;28;20459;-58
2024/02/12 06:38:49;;;;;;;4.37;2.00;;;4.90;99.90;;;;;;5008244;28;20676;-58
2024/02/12 06:41:15;;;;;;;3.60;2.57;;;4.90;99.90;;;;;;5005958;28;20600;-59
2024/02/12 06:43:41;;;;;;;4.80;2.40;;;5.00;99.90;;;;;;5007984;28;20168;-58
2024/02/12 06:46:06;;;;;;;2.17;2.03;;;4.90;99.90;;;;;;5005431;28;20525;-58
2024/02/12 06:48:32;;;;;;;2.70;2.13;;;4.90;99.90;;;;;;5004550;28;20725;-59
2024/02/12 06:51:08;;;;;;;5.80;2.20;;;4.90;99.90;;;;;;5007315;28;20726;-59
2024/02/12 06:53:36;;;;;;;4.00;2.10;;;4.90;99.90;;;;;;5007044;28;20174;-60
2024/02/12 06:56:05;;;;;;;2.53;2.07;;;4.90;99.90;;;;;;5004966;28;20459;-58
2024/02/12 06:58:31;;;;;;;1.90;1.80;;;4.90;99.90;;;;;;5003735;28;20490;-58
2024/02/12 07:00:57;;;;;;;2.40;2.10;;;4.90;99.90;;;;;;5005801;28;20557;-58
2024/02/12 07:03:25;;;;;;;3.20;2.13;;;5.00;99.90;;;;;;5006072;28;20427;-59
2024/02/12 07:05:51;;;;;;;2.80;2.20;;;5.00;99.90;;;;;;5006592;28;20432;-57
2024/02/12 07:08:18;;;;;;;4.63;2.10;;;5.00;99.90;;;;;;5007944;28;20405;-58
2024/02/12 07:10:44;;;;;;;2.33;2.13;;;5.00;99.90;;;;;;5006200;28;20200;-60
2024/02/12 07:13:10;;;;;;;4.80;2.50;;;5.00;99.90;;;;;;5007327;28;20431;-59
2024/02/12 07:15:36;;;;;;;3.07;2.63;;;5.00;99.90;;;;;;5001902;28;20494;-58
2024/02/12 07:18:02;;;;;;;5.70;3.13;;;5.10;99.90;;;;;;5002664;28;20912;-59
2024/02/12 07:20:28;;;;;;;3.77;2.53;;;5.00;99.90;;;;;;5007739;28;20431;-58
2024/02/12 07:22:53;;;;;;;4.20;2.50;;;5.10;99.90;;;;;;5001039;28;20249;-58
2024/02/12 07:25:19;;;;;;;3.00;2.07;;;5.10;99.90;;;;;;5007785;28;20184;-57
2024/02/12 07:27:45;;;;;;;5.10;3.00;;;5.10;99.90;;;;;;5010663;28;20173;-57
2024/02/12 07:30:11;;;;;;;3.73;2.20;;;5.10;99.90;;;;;;5009934;28;20201;-59
2024/02/12 07:32:37;;;;;;;4.83;2.60;;;5.10;99.90;;;;;;5008182;28;20176;-58
2024/02/12 07:35:10;;;;;;;4.20;2.37;;;5.10;99.90;;;;;;5008547;28;20451;-57
2024/02/12 07:37:41;;;;;;;3.90;2.33;;;5.10;99.90;;;;;;5009641;28;20890;-58
2024/02/12 07:40:13;;;;;;;2.93;2.27;;;5.10;99.90;;;;;;5017049;28;20458;-57
2024/02/12 07:42:41;;;;;;;2.60;1.97;;;5.10;99.90;;;;;;5011523;28;20404;-58
2024/02/12 07:45:07;;;;;;;3.53;2.13;;;5.10;99.90;;;;;;5008614;28;20431;-59
2024/02/12 07:47:36;;;;;;;9.20;4.03;;;5.10;99.90;;;;;;5013269;28;20510;-57
2024/02/12 07:50:05;;;;;;;4.07;3.20;;;5.20;99.90;;;;;;5011221;28;20465;-58
2024/02/12 07:52:31;;;;;;;4.73;2.87;;;5.20;99.90;;;;;;5008734;28;20910;-59
2024/02/12 07:54:57;;;;;;;11.10;3.83;;;5.20;99.90;;;;;;5006200;28;20458;-59
2024/02/12 07:57:23;;;;;;;4.17;2.90;;;5.20;99.90;;;;;;5010097;28;20465;-59
2024/02/12 07:59:49;;;;;;;5.20;3.07;;;5.30;99.90;;;;;;5010047;28;20185;-57
2024/02/12 08:02:14;;;;;;;4.87;2.70;;;5.30;99.90;;;;;;5007983;28;21063;-57
2024/02/12 08:04:40;;;;;;;4.90;3.03;;;5.30;99.90;;;;;;5008550;28;20192;-58
2024/02/12 08:07:05;;;;;;;6.07;3.90;;;5.30;99.90;;;;;;5008167;28;20276;-58
2024/02/12 08:09:33;;;;;;;7.80;2.67;;;5.40;99.90;;;;;;5009861;28;20546;-57
2024/02/12 08:12:01;;;;;;;5.80;3.07;;;5.40;99.90;;;;;;5010368;28;20616;-57
2024/02/12 08:14:26;;;;;;;8.00;3.00;;;5.40;99.90;;;;;;5011982;28;20800;-57
2024/02/12 08:16:52;;;;;;;2.53;2.33;;;5.50;99.90;;;;;;5008208;28;20438;-58
2024/02/12 08:19:18;;;;;;;7.73;3.77;;;5.50;99.90;;;;;;5010546;28;20177;-58
2024/02/12 08:21:45;;;;;;;3.93;2.70;;;5.50;99.90;;;;;;5007448;28;20198;-59
2024/02/12 08:24:13;;;;;;;8.70;4.40;;;5.60;99.90;;;;;;5008946;28;20440;-58
2024/02/12 08:26:41;;;;;;;8.47;3.87;;;5.60;99.90;;;;;;5006641;28;20429;-57
2024/02/12 08:29:06;;;;;;;5.90;3.07;;;5.60;99.90;;;;;;5004565;28;20428;-58
2024/02/12 08:31:32;;;;;;;4.50;3.30;;;5.60;99.90;;;;;;5010237;28;20458;-56
2024/02/12 08:33:59;;;;;;;5.53;3.83;;;5.70;99.90;;;;;;5009723;28;20562;-58
2024/02/12 08:36:24;;;;;;;3.37;2.70;;;5.70;99.90;;;;;;5009125;28;20205;-58
2024/02/12 08:38:50;;;;;;;10.30;3.50;;;5.80;99.90;;;;;;5003759;28;20435;-58
2024/02/12 08:41:25;;;;;;;5.43;3.23;;;5.80;99.90;;;;;;5009535;28;20204;-59
2024/02/12 08:43:53;;;;;;;8.43;3.37;;;5.80;99.90;;;;;;5007381;28;20551;-58
2024/02/12 08:46:18;;;;;;;4.57;3.10;;;5.90;99.90;;;;;;5010112;28;20427;-59
2024/02/12 08:48:45;;;;;;;3.27;2.67;;;5.90;99.90;;;;;;5008504;28;20429;-59
2024/02/12 08:51:11;;;;;;;3.40;2.87;;;5.90;99.90;;;;;;5009310;28;20266;-59
2024/02/12 08:53:45;;;;;;;5.17;2.80;;;6.00;99.90;;;;;;5010448;28;20636;-58
2024/02/12 08:56:14;;;;;;;5.80;2.60;;;6.00;99.90;;;;;;5007834;28;20192;-58
2024/02/12 08:58:41;;;;;;;4.50;2.53;;;6.00;99.90;;;;;;5011274;28;20424;-57
2024/02/12 09:01:09;;;;;;;6.20;3.20;;;6.00;99.90;;;;;;5006283;28;20504;-58
2024/02/12 09:03:38;;;;;;;7.80;3.00;;;6.10;99.90;;;;;;5008552;28;20419;-59
2024/02/12 09:06:04;;;;;;;4.60;2.50;;;6.00;99.90;;;;;;5006120;28;20443;-58
2024/02/12 09:08:32;;;;;;;4.37;2.30;;;6.10;99.90;;;;;;5002551;28;20427;-58
2024/02/12 09:10:57;;;;;;;6.10;2.50;;;6.10;99.90;;;;;;5007635;28;20196;-61
2024/02/12 09:13:24;;;;;;;3.13;2.40;;;6.10;99.90;;;;;;5005833;28;20498;-59
2024/02/12 09:15:49;;;;;;;4.60;2.60;;;6.10;99.90;;;;;;5006401;28;20211;-59
2024/02/12 09:18:15;;;;;;;3.17;2.60;;;6.10;99.90;;;;;;5008849;28;20972;-58
2024/02/12 09:20:41;;;;;;;5.37;2.37;;;6.10;99.90;;;;;;5007870;28;20482;-59
2024/02/12 09:23:06;;;;;;;4.60;2.73;;;6.10;99.90;;;;;;5007491;28;20255;-59
2024/02/12 09:25:33;;;;;;;4.97;3.27;;;6.10;99.90;;;;;;5008761;28;20557;-58
2024/02/12 09:27:59;;;;;;;6.60;3.03;;;6.10;99.90;;;;;;5004918;28;20168;-59
2024/02/12 09:30:25;;;;;;;3.40;2.23;;;6.20;99.90;;;;;;5008572;28;20537;-59
2024/02/12 09:32:51;;;;;;;2.30;2.20;;;6.20;99.90;;;;;;5009174;28;20451;-58
2024/02/12 09:35:20;;;;;;;6.53;2.60;;;6.20;99.90;;;;;;5008084;28;20200;-59
2024/02/12 09:37:46;;;;;;;3.03;2.17;;;6.20;99.90;;;;;;5005618;28;20211;-60
2024/02/12 09:40:12;;;;;;;3.90;2.40;;;6.30;99.90;;;;;;5007108;28;20494;-59
2024/02/12 09:42:40;;;;;;;2.87;2.03;;;6.30;99.90;;;;;;5006129;28;20428;-59
2024/02/12 09:45:11;;;;;;;1.70;1.60;;;6.30;99.90;;;;;;5007514;28;20180;-60
2024/02/12 09:47:37;;;;;;;2.30;1.40;;;6.30;99.90;;;;;;5004272;28;20499;-59
2024/02/12 09:50:04;;;;;;;61.43;6.03;;;6.30;99.90;;;;;;5016007;28;20557;-60
2024/02/12 09:52:31;;;;;;;3.07;1.80;;;6.40;99.90;;;;;;5007616;28;20259;-59
2024/02/12 09:54:56;;;;;;;2.33;1.80;;;6.40;99.90;;;;;;5007864;28;20451;-59
2024/02/12 09:57:22;;;;;;;2.30;1.57;;;6.50;99.90;;;;;;5008877;28;20408;-59
2024/02/12 09:59:49;;;;;;;3.90;2.03;;;6.50;99.90;;;;;;5007347;28;20195;-59
2024/02/12 10:02:15;;;;;;;1.63;1.53;;;6.60;99.90;;;;;;5005164;28;20168;-59
2024/02/12 10:04:41;;;;;;;5.90;1.67;;;6.70;99.90;;;;;;4994357;28;20442;-60
2024/02/12 10:07:08;;;;;;;4.03;1.73;;;6.80;99.90;;;;;;5001508;28;20206;-60
2024/02/12 10:09:34;;;;;;;4.87;2.00;;;6.90;99.90;;;;;;5003021;28;20436;-60
2024/02/12 10:12:07;;;;;;;2.30;2.10;;;6.90;99.90;;;;;;5005308;28;20450;-60
2024/02/12 10:14:33;;;;;;;2.10;1.77;;;7.00;99.90;;;;;;5009143;28;21126;-57
2024/02/12 10:17:02;;;;;;;4.77;2.77;;;7.00;99.90;;;;;;5004768;28;20442;-58
2024/02/12 10:19:28;;;;;;;1.80;1.70;;;7.00;99.90;;;;;;5004097;28;21025;-57
2024/02/12 10:21:54;;;;;;;2.73;1.83;;;7.00;99.90;;;;;;5003344;28;20435;-61
2024/02/12 10:24:23;;;;;;;3.60;1.83;;;7.00;99.90;;;;;;5004813;28;20946;-60
2024/02/12 10:26:49;;;;;;;2.30;1.80;;;7.00;99.90;;;;;;5001650;28;20526;-61
2024/02/12 10:29:16;;;;;;;2.13;1.83;;;7.00;99.90;;;;;;5004178;28;20803;-57
2024/02/12 10:31:42;;;;;;;1.87;1.67;;;7.00;99.90;;;;;;5003448;28;20522;-59
2024/02/12 10:34:11;;;;;;;3.87;2.10;;;7.00;99.90;;;;;;4999819;28;20548;-59
2024/02/12 10:36:40;;;;;;;1.87;1.30;;;7.10;99.90;;;;;;5003657;28;20541;-59
2024/02/12 10:39:13;;;;;;;3.07;1.60;;;7.10;99.90;;;;;;5003322;28;20443;-59
2024/02/12 10:41:50;;;;;;;3.40;1.90;;;7.20;99.90;;;;;;5003620;28;20530;-59
2024/02/12 10:44:19;;;;;;;4.67;1.90;;;7.30;99.90;;;;;;5000737;28;20458;-59
2024/02/12 10:46:49;;;;;;;3.03;1.60;;;7.40;99.90;;;;;;5005713;28;20811;-59
2024/02/12 10:49:17;;;;;;;1.60;1.50;;;7.40;99.90;;;;;;5005977;28;20423;-58
2024/02/12 10:51:43;;;;;;;3.63;1.73;;;7.40;99.90;;;;;;5002308;28;21132;-58
2024/02/12 10:54:10;;;;;;;3.80;2.00;;;7.50;99.90;;;;;;5006710;28;20533;-59
2024/02/12 10:56:37;;;;;;;4.07;1.90;;;7.50;99.90;;;;;;5005251;28;21235;-57
2024/02/12 10:59:04;;;;;;;2.00;1.60;;;7.50;99.90;;;;;;5007668;28;20403;-59
2024/02/12 11:01:32;;;;;;;1.73;1.60;;;7.50;99.90;;;;;;5003003;28;20961;-59
2024/02/12 11:04:00;;;;;;;2.00;1.70;;;7.50;99.90;;;;;;5004984;28;20528;-59
2024/02/12 11:06:27;;;;;;;2.47;1.90;;;7.50;99.90;;;;;;5006315;28;20438;-59
2024/02/12 11:08:54;;;;;;;1.73;1.63;;;7.50;99.90;;;;;;5008930;28;20515;-59
2024/02/12 11:11:23;;;;;;;4.23;1.73;;;7.50;99.90;;;;;;5008776;28;21089;-58
2024/02/12 11:14:03;;;;;;;3.40;1.50;;;7.50;99.90;;;;;;5002593;28;20439;-58
2024/02/12 11:16:30;;;;;;;3.80;2.37;;;7.50;99.90;;;;;;5018774;28;21005;-58
2024/02/12 11:18:58;;;;;;;5.27;1.93;;;7.50;99.90;;;;;;5008592;28;20560;-59
2024/02/12 11:21:35;;;;;;;1.97;1.50;;;7.60;99.90;;;;;;5009004;28;20988;-58
2024/02/12 11:24:07;;;;;;;2.63;1.83;;;7.60;99.90;;;;;;5007875;28;20435;-57
2024/02/12 11:26:44;;;;;;;4.33;2.10;;;7.70;99.90;;;;;;5001856;28;20826;-60
2024/02/12 11:29:13;;;;;;;1.80;1.30;;;7.80;99.90;;;;;;5004028;28;20438;-59
2024/02/12 11:31:40;;;;;;;1.37;1.27;;;7.80;94.60;;;;;;5009388;28;20439;-58
2024/02/12 11:34:17;;;;;;;1.90;1.47;;;7.80;95.10;;;;;;5006994;28;20879;-58
2024/02/12 11:36:45;;;;;;;1.40;1.30;;;7.80;94.50;;;;;;5009418;28;20442;-60
2024/02/12 11:39:11;;;;;;;2.73;1.47;;;7.80;92.20;;;;;;5007631;28;20410;-58
2024/02/12 11:41:38;;;;;;;1.37;1.27;;;7.80;93.10;;;;;;5005246;28;20467;-58
2024/02/12 11:44:07;;;;;;;2.03;1.20;;;7.70;92.20;;;;;;5006956;28;20179;-58
2024/02/12 11:46:38;;;;;;;3.07;1.63;;;7.70;91.40;;;;;;5002090;28;20923;-58
2024/02/12 11:49:08;;;;;;;2.47;1.20;;;7.60;92.60;;;;;;5009301;28;20427;-61
2024/02/12 11:51:38;;;;;;;2.43;1.50;;;7.60;91.80;;;;;;5005052;28;20447;-61
2024/02/12 11:54:11;;;;;;;1.87;1.40;;;7.50;90.60;;;;;;5007452;28;20489;-59
2024/02/12 11:56:37;;;;;;;1.60;1.50;;;7.40;91.40;;;;;;5009054;28;20504;-59
2024/02/12 11:59:04;;;;;;;2.00;1.80;;;7.40;92.20;;;;;;5007630;28;20463;-59
2024/02/12 12:01:35;;;;;;;1.50;1.40;;;7.40;95.30;;;;;;5001555;28;20208;-59
2024/02/12 12:04:01;;;;;;;3.77;1.67;;;7.30;98.00;;;;;;5017603;28;20977;-59
2024/02/12 12:06:35;;;;;;;2.27;1.57;;;7.30;99.90;;;;;;5005056;28;20438;-60
2024/02/12 12:09:05;;;;;;;1.80;1.70;;;7.20;99.90;;;;;;5007861;28;20443;-59
2024/02/12 12:11:30;;;;;;;1.50;1.40;;;7.20;99.90;;;;;;5004746;28;20997;-60
2024/02/12 12:14:00;;;;;;;1.53;1.43;;;7.10;99.90;;;;;;5004143;28;20427;-60
2024/02/12 12:16:30;;;;;;;1.70;1.60;;;7.10;99.90;;;;;;5008793;28;20184;-59
2024/02/12 12:19:01;;;;;;;1.60;1.50;;;7.00;99.90;;;;;;5000179;28;20416;-60
2024/02/12 12:21:29;;;;;;;2.43;1.80;;;6.90;99.90;;;;;;5003857;28;20475;-60
2024/02/12 12:23:54;;;;;;;2.67;2.13;;;6.90;99.90;;;;;;4999544;28;20437;-60
2024/02/12 12:26:20;;;;;;;1.57;1.47;;;6.90;99.90;;;;;;5005824;28;20436;-58
2024/02/12 12:28:46;;;;;;;1.43;1.27;;;6.90;99.90;;;;;;5007311;28;20176;-59
2024/02/12 12:31:11;;;;;;;1.93;1.80;;;6.90;99.90;;;;;;5000444;28;20291;-60
2024/02/12 12:33:37;;;;;;;2.17;1.90;;;6.90;99.90;;;;;;5004728;28;20263;-60
2024/02/12 12:36:08;;;;;;;1.43;1.33;;;6.90;99.90;;;;;;5003252;28;20764;-54
2024/02/12 12:38:36;;;;;;;1.30;1.20;;;6.90;99.90;;;;;;5000116;28;20209;-59
2024/02/12 12:41:02;;;;;;;1.73;1.40;;;7.00;99.90;;;;;;4997606;28;21033;-59
2024/02/12 12:43:27;;;;;;;2.60;1.80;;;7.00;99.90;;;;;;5005674;28;20515;-59
2024/02/12 12:45:53;;;;;;;1.53;1.43;;;7.20;99.90;;;;;;5006448;28;21065;-59
2024/02/12 12:48:19;;;;;;;1.53;1.43;;;7.30;99.90;;;;;;5006218;28;20188;-59
2024/02/12 12:50:44;;;;;;;1.80;1.40;;;7.40;99.90;;;;;;5005272;28;20202;-60
2024/02/12 12:53:10;;;;;;;1.33;1.20;;;7.40;99.90;;;;;;5006065;28;20234;-59
2024/02/12 12:55:36;;;;;;;1.30;1.20;;;7.50;99.90;;;;;;5004627;28;20200;-60
2024/02/12 12:58:02;;;;;;;1.47;1.37;;;7.50;99.90;;;;;;5005708;28;20713;-60
2024/02/12 13:00:30;;;;;;;1.90;1.63;;;7.60;99.90;;;;;;5003785;28;20199;-59
2024/02/12 13:02:55;;;;;;;3.23;1.60;;;7.60;99.90;;;;;;5007403;28;20172;-58
2024/02/12 13:05:22;;;;;;;1.53;1.07;;;7.60;99.90;;;;;;5007661;28;20434;-59
2024/02/12 13:07:49;;;;;;;1.77;1.30;;;7.70;99.90;;;;;;5007101;28;20200;-59
2024/02/12 13:10:15;;;;;;;2.40;1.53;;;7.70;99.90;;;;;;4999908;28;20516;-60
2024/02/12 13:12:43;;;;;;;2.43;1.60;;;7.80;99.90;;;;;;5009581;28;20906;-59